Time;durP1;ratioP1;P1;durP2;ratioP2;P2;SDS_P1;SDS_P2;PMS_P1;PMS_P2;Temp;Humidity;BMP_temperature;BMP_pressure;BME280_temperature;BME280_humidity;BME280_pressure;Samples;Min_cycle;Max_cycle;Signal;HPM_P1;HPM_P2
2024/04/06 00:01:11;;;;;;;8.25;2.85;;;;;;;14.79;84.98;100268.34;6322542;28;20052;-76
2024/04/06 00:04:12;;;;;;;8.45;3.05;;;;;;;14.70;84.95;100266.41;6323469;28;20058;-76
2024/04/06 00:07:13;;;;;;;7.10;3.00;;;;;;;14.66;85.54;100265.81;6322183;28;20136;-75
2024/04/06 00:10:16;;;;;;;4.90;2.70;;;;;;;14.56;86.08;100261.34;6321741;28;20052;-76
2024/04/06 00:13:16;;;;;;;3.88;2.65;;;;;;;14.59;85.85;100271.63;6322028;28;20063;-76
2024/04/06 00:16:17;;;;;;;6.28;2.20;;;;;;;14.65;85.41;100269.38;6321842;28;20051;-67
2024/04/06 00:19:18;;;;;;;4.45;2.17;;;;;;;14.64;85.38;100266.88;6321502;28;20057;-76
2024/04/06 00:22:19;;;;;;;6.57;2.28;;;;;;;14.58;86.07;100267.31;6321781;28;20078;-76
2024/04/06 00:25:22;;;;;;;8.60;2.53;;;;;;;14.52;86.31;100263.34;6321388;28;20052;-66
2024/04/06 00:28:24;;;;;;;9.98;2.20;;;;;;;14.42;86.79;100260.56;6321290;28;20123;-76
2024/04/06 00:31:25;;;;;;;4.78;2.00;;;;;;;14.25;87.04;100256.56;6321846;28;20060;-76
2024/04/06 00:34:28;;;;;;;5.50;2.20;;;;;;;14.30;87.16;100248.34;6321508;28;20097;-76
2024/04/06 00:37:29;;;;;;;8.68;1.95;;;;;;;14.22;87.98;100248.88;6322473;28;20051;-76
2024/04/06 00:40:30;;;;;;;4.18;1.95;;;;;;;14.18;88.56;100250.06;6321419;28;20416;-76
2024/04/06 00:43:32;;;;;;;2.45;1.75;;;;;;;14.09;89.13;100250.75;6308036;28;20057;-67
2024/04/06 00:46:33;;;;;;;4.65;1.95;;;;;;;14.13;88.16;100248.75;6298526;28;20075;-66
2024/04/06 00:49:36;;;;;;;4.38;1.80;;;;;;;13.98;89.11;100246.28;6321025;28;20051;-66
2024/04/06 00:52:37;;;;;;;4.50;2.25;;;;;;;13.98;89.42;100248.03;6320737;28;20052;-67
2024/04/06 00:55:38;;;;;;;4.27;2.07;;;;;;;13.81;90.84;100249.25;6320860;28;20086;-76
2024/04/06 00:58:40;;;;;;;4.03;2.20;;;;;;;13.85;90.96;100250.72;6321761;28;20093;-68
2024/04/06 01:01:41;;;;;;;5.97;2.30;;;;;;;13.81;91.39;100251.88;6321983;28;20044;-67
2024/04/06 01:04:42;;;;;;;5.68;2.30;;;;;;;13.83;91.40;100240.34;6321036;28;20140;-67
2024/04/06 01:07:45;;;;;;;7.45;3.00;;;;;;;13.80;92.10;100248.44;6308738;28;20654;-76
2024/04/06 01:10:48;;;;;;;6.68;2.97;;;;;;;13.72;91.88;100245.53;6302452;28;20057;-76
2024/04/06 01:13:49;;;;;;;7.57;3.00;;;;;;;13.66;93.32;100236.28;6304772;28;20492;-67
2024/04/06 01:16:50;;;;;;;6.72;3.42;;;;;;;13.75;92.42;100242.66;6309901;28;20112;-76
2024/04/06 01:19:51;;;;;;;8.65;2.88;;;;;;;13.61;92.83;100237.56;6312700;28;20048;-67
2024/04/06 01:22:51;;;;;;;10.00;3.05;;;;;;;13.66;93.14;100232.84;6296456;28;20452;-77
2024/04/06 01:25:52;;;;;;;5.55;2.97;;;;;;;13.51;93.65;100237.41;6306099;28;20059;-67
2024/04/06 01:28:53;;;;;;;7.00;3.30;;;;;;;13.27;95.89;100255.63;6316351;28;20037;-67
2024/04/06 01:31:54;;;;;;;9.50;3.67;;;;;;;13.46;94.38;100253.41;6303129;28;20052;-66
2024/04/06 01:34:59;;;;;;;6.72;3.53;;;;;;;13.44;94.91;100252.69;6301026;28;20052;-67
2024/04/06 01:38:00;;;;;;;6.15;3.30;;;;;;;13.41;95.29;100255.53;6298425;28;20041;-67
2024/04/06 01:41:01;;;;;;;10.15;4.45;;;;;;;13.40;94.74;100256.47;6304433;28;20051;-67
2024/04/06 01:44:01;;;;;;;10.10;3.92;;;;;;;13.33;95.45;100257.03;6299699;28;20135;-76
2024/04/06 01:47:02;;;;;;;6.43;3.33;;;;;;;13.30;95.88;100261.53;6319263;28;20058;-76
2024/04/06 01:50:06;;;;;;;9.52;3.70;;;;;;;13.30;96.30;100265.91;6310267;28;20514;-67
2024/04/06 01:53:09;;;;;;;6.68;3.83;;;;;;;13.20;96.91;100278.81;6305688;28;20088;-76
2024/04/06 01:56:12;;;;;;;7.45;3.67;;;;;;;13.18;96.47;100264.97;6296871;28;20049;-67
2024/04/06 01:59:13;;;;;;;9.07;3.50;;;;;;;13.15;97.02;100277.44;6297201;28;20417;-67
2024/04/06 02:02:14;;;;;;;7.93;3.50;;;;;;;13.15;97.69;100254.69;6295040;28;20151;-67
2024/04/06 02:05:18;;;;;;;8.73;3.67;;;;;;;13.09;98.00;100261.19;6316857;28;20564;-67
2024/04/06 02:08:18;;;;;;;6.45;3.47;;;;;;;13.05;99.05;100258.88;6304928;28;20411;-67
2024/04/06 02:11:19;;;;;;;7.35;3.55;;;;;;;13.01;99.39;100244.31;6295591;28;20044;-76
2024/04/06 02:14:22;;;;;;;7.20;3.75;;;;;;;12.98;99.30;100249.78;6297804;28;20052;-76
2024/04/06 02:17:24;;;;;;;12.52;3.80;;;;;;;12.87;100.00;100253.94;6314508;28;20040;-76
2024/04/06 02:20:25;;;;;;;7.65;3.45;;;;;;;12.87;99.51;100263.59;6313987;28;20393;-76
2024/04/06 02:23:26;;;;;;;6.88;3.30;;;;;;;12.94;100.00;100248.28;6298048;28;20504;-76
2024/04/06 02:26:27;;;;;;;7.50;3.08;;;;;;;12.91;100.00;100249.34;6306824;28;20057;-76
2024/04/06 02:29:28;;;;;;;6.60;3.20;;;;;;;12.87;99.55;100246.09;6295039;28;20101;-67
2024/04/06 02:32:28;;;;;;;6.53;3.30;;;;;;;12.86;99.81;100249.63;6305529;28;20055;-68
2024/04/06 02:35:29;;;;;;;5.32;2.97;;;;;;;12.85;100.00;100252.38;6306440;28;20048;-67
2024/04/06 02:38:30;;;;;;;6.15;2.70;;;;;;;12.76;100.00;100253.00;6303866;28;20086;-76
2024/04/06 02:41:31;;;;;;;6.40;2.77;;;;;;;12.73;100.00;100261.06;6302796;28;20128;-76
2024/04/06 02:44:32;;;;;;;6.68;2.50;;;;;;;12.61;100.00;100244.38;6306307;28;20062;-76
2024/04/06 02:47:35;;;;;;;5.80;2.97;;;;;;;12.68;100.00;100248.25;6318758;28;20064;-67
2024/04/06 02:50:36;;;;;;;5.43;2.42;;;;;;;12.72;100.00;100236.63;6296724;28;20055;-66
2024/04/06 02:53:37;;;;;;;4.05;2.35;;;;;;;12.72;100.00;100226.16;6307626;28;20135;-76
2024/04/06 02:56:38;;;;;;;5.80;2.38;;;;;;;12.61;100.00;100224.28;6304425;28;20044;-76
2024/04/06 02:59:39;;;;;;;5.65;2.45;;;;;;;12.64;100.00;100225.84;6319813;28;20424;-67
2024/04/06 03:02:40;;;;;;;6.95;2.90;;;;;;;12.65;100.00;100217.06;6324446;28;20104;-68
2024/04/06 03:05:41;;;;;;;5.57;2.47;;;;;;;12.49;100.00;100207.59;6309159;28;20048;-66
2024/04/06 03:08:42;;;;;;;4.27;2.53;;;;;;;12.45;100.00;100194.81;6308229;28;20459;-76
2024/04/06 03:11:42;;;;;;;5.53;2.72;;;;;;;12.40;100.00;100212.63;6309719;28;20353;-76
2024/04/06 03:14:46;;;;;;;8.38;2.45;;;;;;;12.48;100.00;100218.19;6309728;28;20050;-76
2024/04/06 03:17:46;;;;;;;3.80;2.03;;;;;;;12.41;100.00;100222.97;6323397;28;20044;-76
2024/04/06 03:20:47;;;;;;;3.50;2.40;;;;;;;12.53;100.00;100225.72;6312088;28;20051;-77
2024/04/06 03:23:50;;;;;;;5.80;2.25;;;;;;;12.51;100.00;100220.59;6301160;28;20070;-76
2024/04/06 03:26:52;;;;;;;2.40;1.85;;;;;;;12.45;100.00;100216.59;6299397;28;20447;-67
2024/04/06 03:29:53;;;;;;;7.32;2.45;;;;;;;12.48;100.00;100220.81;6296499;28;20040;-67
2024/04/06 03:32:55;;;;;;;6.32;2.30;;;;;;;12.53;100.00;100226.56;6304187;28;20055;-67
2024/04/06 03:35:56;;;;;;;8.82;2.28;;;;;;;12.39;100.00;100224.00;6311555;28;20492;-67
2024/04/06 03:38:57;;;;;;;3.38;2.08;;;;;;;12.49;100.00;100223.31;6305968;28;20103;-66
2024/04/06 03:41:59;;;;;;;3.60;2.15;;;;;;;12.49;100.00;100220.69;6302790;28;20086;-67
2024/04/06 03:44:59;;;;;;;7.97;2.40;;;;;;;12.58;100.00;100227.09;6300561;28;20076;-76
2024/04/06 03:48:01;;;;;;;3.67;1.80;;;;;;;12.47;100.00;100227.78;6296813;28;20050;-76
2024/04/06 03:51:04;;;;;;;3.15;1.98;;;;;;;12.47;100.00;100226.97;6305502;28;20138;-67
2024/04/06 03:54:05;;;;;;;8.88;2.30;;;;;;;12.39;100.00;100230.06;6313327;28;20059;-77
2024/04/06 03:57:06;;;;;;;5.63;2.13;;;;;;;12.52;100.00;100229.28;6316794;28;20044;-67
2024/04/06 04:00:11;;;;;;;2.85;1.90;;;;;;;12.42;100.00;100218.59;6318630;28;20054;-68
2024/04/06 04:03:12;;;;;;;4.40;2.10;;;;;;;12.40;100.00;100229.16;6318185;28;20058;-76
2024/04/06 04:06:13;;;;;;;3.28;1.60;;;;;;;12.38;100.00;100238.06;6321243;28;20048;-76
2024/04/06 04:09:16;;;;;;;6.60;2.40;;;;;;;12.39;100.00;100235.31;6311946;28;20043;-76
2024/04/06 04:12:17;;;;;;;3.75;2.10;;;;;;;12.43;100.00;100223.72;6319140;28;20048;-76
2024/04/06 04:15:17;;;;;;;3.63;2.00;;;;;;;12.47;100.00;100234.81;6316230;28;20048;-76
2024/04/06 04:18:18;;;;;;;4.57;1.92;;;;;;;12.51;100.00;100244.13;6304280;28;20076;-76
2024/04/06 04:21:19;;;;;;;5.60;1.70;;;;;;;12.44;99.72;100246.34;6312803;28;20059;-76
2024/04/06 04:24:20;;;;;;;2.75;1.58;;;;;;;12.59;99.37;100251.50;6309229;28;20097;-76
2024/04/06 04:27:20;;;;;;;3.40;1.90;;;;;;;12.52;98.78;100255.44;6298429;28;20044;-67
2024/04/06 04:30:22;;;;;;;6.05;2.33;;;;;;;12.54;99.23;100262.28;6318342;28;20055;-67
2024/04/06 04:33:25;;;;;;;6.80;2.00;;;;;;;12.65;98.89;100253.72;6315558;28;20088;-67
2024/04/06 04:36:25;;;;;;;3.53;1.90;;;;;;;12.55;98.96;100244.78;6307517;28;20492;-77
2024/04/06 04:39:26;;;;;;;3.67;2.00;;;;;;;12.63;99.50;100245.13;6299962;28;20049;-67
2024/04/06 04:42:27;;;;;;;4.05;1.77;;;;;;;12.75;98.25;100241.69;6313622;28;20496;-76
2024/04/06 04:45:28;;;;;;;5.07;1.90;;;;;;;12.76;99.11;100242.50;6311227;28;20036;-76
2024/04/06 04:48:51;;;;;;;2.90;2.05;;;;;;;12.71;98.06;100240.22;6304504;28;20129;-76
2024/04/06 04:51:52;;;;;;;3.85;1.98;;;;;;;12.82;98.52;100245.56;6297080;28;21396;-76
2024/04/06 04:54:55;;;;;;;3.72;1.65;;;;;;;12.84;98.96;100245.47;6308340;28;20411;-76
2024/04/06 04:57:56;;;;;;;2.72;1.50;;;;;;;12.92;99.19;100243.16;6315025;28;20040;-68
2024/04/06 05:00:56;;;;;;;2.78;1.42;;;;;;;12.97;98.55;100227.97;6299653;28;20067;-67
2024/04/06 05:03:59;;;;;;;5.15;2.03;;;;;;;13.00;97.88;100242.66;6316890;28;20407;-76
2024/04/06 05:07:00;;;;;;;3.55;1.55;;;;;;;13.16;97.19;100245.88;6305610;28;20132;-76
2024/04/06 05:10:01;;;;;;;4.30;1.60;;;;;;;13.20;96.38;100243.88;6308796;28;20407;-75
2024/04/06 05:13:04;;;;;;;1.75;1.38;;;;;;;13.02;96.20;100261.72;6309522;28;20056;-76
2024/04/06 05:16:06;;;;;;;4.72;1.70;;;;;;;13.26;96.54;100256.56;6315935;28;20055;-67
2024/04/06 05:19:07;;;;;;;2.92;1.55;;;;;;;13.32;95.70;100261.41;6314304;28;20131;-67
2024/04/06 05:22:08;;;;;;;3.40;1.77;;;;;;;13.41;96.03;100258.16;6321143;28;20083;-67
2024/04/06 05:25:09;;;;;;;3.35;1.80;;;;;;;13.36;95.92;100255.00;6314199;28;20105;-76
2024/04/06 05:28:10;;;;;;;2.88;1.52;;;;;;;13.47;96.49;100257.75;6318871;28;20043;-67
2024/04/06 05:31:11;;;;;;;3.95;1.50;;;;;;;13.56;96.05;100244.94;6316039;28;20048;-67
2024/04/06 05:34:15;;;;;;;2.50;1.67;;;;;;;13.56;96.18;100231.81;6307660;28;20060;-67
2024/04/06 05:37:15;;;;;;;3.08;1.67;;;;;;;13.67;96.28;100214.38;6316837;28;20039;-67
2024/04/06 05:40:16;;;;;;;3.45;1.63;;;;;;;13.62;95.78;100226.16;6318720;28;20522;-76
2024/04/06 05:43:17;;;;;;;4.80;1.70;;;;;;;13.58;96.04;100233.38;6310724;28;20142;-67
2024/04/06 05:46:18;;;;;;;4.35;1.70;;;;;;;13.58;95.12;100238.63;6313608;28;20048;-68
2024/04/06 05:49:19;;;;;;;4.43;1.73;;;;;;;13.63;95.05;100252.25;6301080;28;20040;-66
2024/04/06 05:52:19;;;;;;;3.80;1.90;;;;;;;13.72;94.82;100258.63;6313473;28;20067;-76
2024/04/06 05:55:20;;;;;;;3.75;1.33;;;;;;;13.79;94.29;100256.41;6311447;28;20427;-76
2024/04/06 05:58:21;;;;;;;4.25;1.60;;;;;;;13.86;93.95;100261.09;6320802;28;20047;-76
2024/04/06 06:01:22;;;;;;;3.38;1.48;;;;;;;13.89;94.23;100266.13;6320178;28;20058;-76
2024/04/06 06:04:23;;;;;;;6.07;1.60;;;;;;;14.03;93.99;100278.25;6317963;28;20505;-67
2024/04/06 06:07:23;;;;;;;5.07;1.63;;;;;;;14.06;93.38;100274.56;6316207;28;20052;-67
2024/04/06 06:10:24;;;;;;;3.38;1.67;;;;;;;14.15;93.49;100279.16;6311079;28;20162;-76
2024/04/06 06:13:25;;;;;;;3.45;1.67;;;;;;;14.34;92.43;100275.22;6299583;28;20080;-76
2024/04/06 06:16:26;;;;;;;3.35;1.83;;;;;;;14.28;91.89;100266.81;6305634;28;20143;-66
2024/04/06 06:19:26;;;;;;;3.50;1.80;;;;;;;14.24;91.82;100257.50;6305497;28;20052;-68
2024/04/06 06:22:30;;;;;;;2.70;1.75;;;;;;;14.35;91.73;100243.59;6318238;28;20048;-68
2024/04/06 06:25:34;;;;;;;3.17;1.73;;;;;;;14.35;91.62;100254.09;6318576;28;20048;-67
2024/04/06 06:28:35;;;;;;;3.17;1.70;;;;;;;14.45;91.83;100262.94;6308425;28;20524;-67
2024/04/06 06:31:35;;;;;;;5.22;1.80;;;;;;;14.62;91.69;100271.38;6319833;28;20056;-76
2024/04/06 06:34:38;;;;;;;6.85;2.13;;;;;;;14.52;90.63;100268.59;6319054;28;20056;-76
2024/04/06 06:37:39;;;;;;;2.50;1.77;;;;;;;14.50;91.15;100270.50;6311346;28;20040;-76
2024/04/06 06:40:40;;;;;;;4.85;1.90;;;;;;;14.39;93.10;100271.31;6322469;28;20051;-77
2024/04/06 06:43:43;;;;;;;3.28;1.90;;;;;;;14.54;94.73;100271.09;6323257;28;20083;-67
2024/04/06 06:46:44;;;;;;;9.15;1.85;;;;;;;14.50;97.04;100266.09;6311104;28;20188;-67
2024/04/06 06:49:45;;;;;;;5.65;1.80;;;;;;;14.58;97.26;100257.69;6320729;28;20491;-67
2024/04/06 06:52:45;;;;;;;6.35;1.92;;;;;;;14.60;98.76;100260.16;6313089;28;20511;-77
2024/04/06 06:55:46;;;;;;;2.92;1.60;;;;;;;14.74;99.41;100262.59;6313333;28;20411;-77
2024/04/06 06:58:47;;;;;;;5.30;1.85;;;;;;;14.85;97.81;100274.94;6311516;28;20049;-67
2024/04/06 07:01:50;;;;;;;5.63;1.60;;;;;;;14.96;96.04;100284.63;6311716;28;20063;-67
2024/04/06 07:04:51;;;;;;;2.10;1.58;;;;;;;15.12;95.01;100300.91;6323572;28;20056;-67
2024/04/06 07:07:54;;;;;;;4.05;1.98;;;;;;;15.26;96.29;100316.47;6318847;28;20419;-67
2024/04/06 07:10:54;;;;;;;4.70;2.22;;;;;;;15.31;93.97;100318.75;6323039;28;20125;-69
2024/04/06 07:13:55;;;;;;;2.42;1.80;;;;;;;15.42;93.06;100313.50;6322531;28;20071;-77
2024/04/06 07:16:56;;;;;;;3.33;2.08;;;;;;;15.43;90.97;100311.72;6307136;28;20056;-67
2024/04/06 07:19:57;;;;;;;6.10;2.22;;;;;;;15.64;88.78;100304.78;6297855;28;20049;-67
2024/04/06 07:22:57;;;;;;;5.72;2.03;;;;;;;15.79;89.45;100309.81;6305504;28;20376;-77
2024/04/06 07:25:58;;;;;;;6.03;2.13;;;;;;;15.89;88.57;100303.69;6322574;28;20048;-67
2024/04/06 07:29:01;;;;;;;15.13;2.30;;;;;;;15.83;87.61;100309.44;6323282;28;20051;-68
2024/04/06 07:32:02;;;;;;;2.42;1.92;;;;;;;15.75;87.50;100316.28;6320205;28;20127;-76
2024/04/06 07:35:07;;;;;;;4.47;1.80;;;;;;;15.69;87.99;100315.78;6318305;28;20385;-67
2024/04/06 07:38:09;;;;;;;3.65;1.90;;;;;;;15.75;88.46;100306.63;6305346;28;20076;-67
2024/04/06 07:41:11;;;;;;;7.57;2.10;;;;;;;15.75;87.73;100314.50;6298441;28;20059;-77
2024/04/06 07:44:11;;;;;;;6.65;2.35;;;;;;;15.84;88.33;100320.81;6297305;28;20056;-76
2024/04/06 07:47:12;;;;;;;3.53;2.10;;;;;;;15.82;87.02;100320.13;6298491;28;20098;-67
2024/04/06 07:50:13;;;;;;;4.32;2.38;;;;;;;15.77;88.49;100327.50;6297107;28;20106;-67
2024/04/06 07:53:14;;;;;;;5.28;2.35;;;;;;;15.77;87.70;100330.97;6298194;28;20131;-76
2024/04/06 07:56:15;;;;;;;3.00;2.05;;;;;;;15.78;86.34;100331.84;6296976;28;20055;-68
2024/04/06 07:59:15;;;;;;;3.45;2.05;;;;;;;15.93;86.89;100332.41;6298261;28;20045;-77
2024/04/06 08:02:16;;;;;;;3.95;2.22;;;;;;;16.09;85.78;100332.88;6298286;28;20044;-67
2024/04/06 08:05:17;;;;;;;6.50;2.47;;;;;;;16.22;85.52;100341.44;6296782;28;20512;-67
2024/04/06 08:08:17;;;;;;;7.38;2.40;;;;;;;16.05;85.98;100344.59;6296578;28;20550;-68
2024/04/06 08:11:18;;;;;;;4.15;2.20;;;;;;;16.17;86.64;100340.16;6296752;28;20048;-68
2024/04/06 08:14:22;;;;;;;5.88;2.70;;;;;;;16.14;86.68;100335.97;6297730;28;20052;-76
2024/04/06 08:17:23;;;;;;;4.53;2.55;;;;;;;16.15;87.12;100328.91;6296608;28;20459;-76
2024/04/06 08:20:23;;;;;;;5.80;2.60;;;;;;;16.13;87.83;100329.03;6296475;28;20075;-76
2024/04/06 08:23:24;;;;;;;9.32;2.35;;;;;;;16.21;89.30;100342.41;6296370;28;20049;-67
2024/04/06 08:26:25;;;;;;;5.13;2.50;;;;;;;16.37;90.48;100349.06;6296203;28;20519;-76
2024/04/06 08:29:26;;;;;;;15.10;2.63;;;;;;;16.53;90.99;100352.16;6296116;28;20185;-67
2024/04/06 08:32:29;;;;;;;6.47;2.53;;;;;;;16.41;88.46;100351.34;6297301;28;20501;-68
2024/04/06 08:35:29;;;;;;;5.75;2.55;;;;;;;16.66;85.36;100344.09;6297599;28;20094;-76
2024/04/06 08:38:30;;;;;;;6.70;2.75;;;;;;;16.96;87.65;100342.53;6296095;28;20041;-77
2024/04/06 08:41:31;;;;;;;4.30;2.28;;;;;;;16.96;85.53;100332.84;6297152;28;20106;-76
2024/04/06 08:44:44;;;;;;;4.75;2.40;;;;;;;17.18;84.42;100333.69;6296765;28;20134;-77
2024/04/06 08:47:49;;;;;;;13.07;2.70;;;;;;;17.25;83.46;100337.47;6295706;28;20067;-76
2024/04/06 08:50:52;;;;;;;5.88;2.85;;;;;;;17.35;82.55;100335.72;6296295;28;20048;-77
2024/04/06 08:53:53;;;;;;;5.75;2.83;;;;;;;17.54;80.82;100319.16;6295705;28;20067;-68
2024/04/06 08:56:57;;;;;;;4.60;2.60;;;;;;;17.76;80.70;100302.28;6296756;28;20095;-68
2024/04/06 08:59:59;;;;;;;4.68;2.50;;;;;;;17.85;79.26;100301.53;6302637;28;20073;-69
2024/04/06 09:03:00;;;;;;;;;;;;;;;18.09;78.26;100289.78;6298815;28;20093;-68
2024/04/06 09:06:01;;;;;;;12.85;5.00;;;;;;;18.18;78.49;100275.75;6299580;28;19936;-77
2024/04/06 09:09:04;;;;;;;8.50;2.70;;;;;;;18.39;80.11;100277.41;6294873;28;20064;-69
2024/04/06 09:12:05;;;;;;;6.15;3.10;;;;;;;18.61;79.21;100258.63;6298490;28;20413;-77
2024/04/06 09:15:12;;;;;;;4.82;2.63;;;;;;;18.61;77.31;100252.53;6299210;28;20055;-68
2024/04/06 09:18:13;;;;;;;7.03;2.92;;;;;;;18.73;76.20;100254.03;6300220;28;20476;-77
2024/04/06 09:21:13;;;;;;;5.45;2.55;;;;;;;18.91;76.77;100239.16;6321506;28;20058;-77
2024/04/06 09:24:14;;;;;;;6.68;2.63;;;;;;;18.99;74.42;100241.09;6318393;28;20054;-77
2024/04/06 09:27:18;;;;;;;5.15;2.50;;;;;;;19.21;74.22;100247.00;6320721;28;20044;-69
2024/04/06 09:30:30;;;;;;;4.63;2.22;;;;;;;19.36;73.53;100257.97;6320935;28;20087;-77
2024/04/06 09:33:32;;;;;;;4.32;2.60;;;;;;;18.98;73.16;100241.22;6317858;28;20471;-77
2024/04/06 09:36:39;;;;;;;6.00;2.45;;;;;;;18.43;74.75;100223.34;6307461;28;20059;-77
2024/04/06 09:39:40;;;;;;;4.57;2.63;;;;;;;18.52;75.27;100227.78;6320071;28;20047;-76
2024/04/06 09:42:42;;;;;;;6.65;2.33;;;;;;;18.61;75.40;100215.53;6319382;28;20480;-77
2024/04/06 09:45:43;;;;;;;5.32;2.50;;;;;;;18.92;75.02;100202.97;6318987;28;20104;-77
2024/04/06 09:48:45;;;;;;;6.03;2.38;;;;;;;18.88;74.94;100201.59;6316923;28;20044;-77
2024/04/06 09:51:50;;;;;;;4.85;2.20;;;;;;;18.73;75.13;100207.28;6319450;28;20189;-68
2024/04/06 09:54:52;;;;;;;5.32;1.95;;;;;;;18.96;75.59;100199.06;6318439;28;20051;-68
2024/04/06 09:57:55;;;;;;;10.30;2.00;;;;;;;19.06;75.78;100202.50;6319030;28;20083;-68
2024/04/06 10:01:08;;;;;;;5.30;2.40;;;;;;;18.86;75.61;100200.91;6319450;28;20060;-68
2024/04/06 10:04:25;;;;;;;6.75;3.13;;;;;;;19.07;77.10;100213.94;6305475;28;20105;-77
2024/04/06 10:07:32;;;;;;;7.13;2.47;;;;;;;19.29;74.59;100208.28;6303090;28;20511;-77
2024/04/06 10:10:32;;;;;;;6.13;2.60;;;;;;;19.34;74.70;100213.13;6317061;28;20144;-68
2024/04/06 10:13:35;;;;;;;6.97;2.70;;;;;;;19.10;73.47;100203.06;6302901;28;20052;-68
2024/04/06 10:16:39;;;;;;;6.20;2.30;;;;;;;19.41;73.75;100205.44;6317804;28;20768;-68
2024/04/06 10:19:43;;;;;;;3.60;2.47;;;;;;;19.43;72.92;100220.16;6316422;28;20611;-69
2024/04/06 10:23:00;;;;;;;5.07;2.28;;;;;;;19.83;72.75;100229.59;6317834;28;20052;-68
2024/04/06 10:26:01;;;;;;;2.88;2.20;;;;;;;19.88;69.83;100218.56;6297741;28;20048;-77
2024/04/06 10:29:02;;;;;;;3.30;1.90;;;;;;;19.91;70.08;100224.41;6311392;28;20416;-77
2024/04/06 10:32:03;;;;;;;4.40;2.28;;;;;;;20.29;68.94;100226.91;6319980;28;20404;-77
2024/04/06 10:35:04;;;;;;;4.20;2.22;;;;;;;20.61;69.83;100249.38;6311809;28;20058;-77
2024/04/06 10:38:06;;;;;;;6.93;2.27;;;;;;;20.83;67.28;100242.75;6318448;28;20036;-69
2024/04/06 10:41:08;;;;;;;8.60;2.53;;;;;;;21.11;66.74;100260.16;6310593;28;20055;-77
2024/04/06 10:44:12;;;;;;;6.80;2.20;;;;;;;21.03;67.04;100246.03;6319555;28;20063;-77
2024/04/06 10:47:12;;;;;;;3.60;2.10;;;;;;;20.90;67.29;100241.16;6319763;28;20423;-78
2024/04/06 10:50:13;;;;;;;5.10;2.00;;;;;;;20.77;66.91;100238.06;6314184;28;20052;-78
2024/04/06 10:53:15;;;;;;;7.93;2.08;;;;;;;20.77;66.49;100220.31;6318115;28;20052;-78
2024/04/06 10:56:15;;;;;;;3.72;2.20;;;;;;;20.39;67.73;100216.22;6310378;28;20094;-77
2024/04/06 10:59:16;;;;;;;7.28;2.17;;;;;;;20.48;69.31;100210.81;6293917;28;20049;-78
2024/04/06 11:02:17;;;;;;;4.50;2.27;;;;;;;20.36;67.64;100201.44;6318511;28;20443;-77
2024/04/06 11:05:18;;;;;;;12.52;2.95;;;;;;;20.40;68.32;100194.03;6317602;28;20047;-78
2024/04/06 11:08:18;;;;;;;5.87;2.97;;;;;;;20.47;68.93;100187.97;6314492;28;20080;-78
2024/04/06 11:11:19;;;;;;;5.40;2.83;;;;;;;20.21;69.39;100184.44;6294264;28;20404;-78
2024/04/06 11:14:26;;;;;;;3.25;1.98;;;;;;;20.36;68.97;100184.72;6304772;28;20101;-78
2024/04/06 11:17:30;;;;;;;4.90;1.92;;;;;;;20.66;68.75;100186.97;6317262;28;20052;-78
2024/04/06 11:20:32;;;;;;;4.82;2.35;;;;;;;20.97;69.03;100191.78;6324113;28;20056;-70
2024/04/06 11:23:33;;;;;;;4.95;1.98;;;;;;;21.13;66.05;100194.53;6322102;28;20081;-68
2024/04/06 11:26:36;;;;;;;4.83;2.20;;;;;;;21.20;65.74;100210.63;6320255;28;20053;-68
2024/04/06 11:29:37;;;;;;;4.22;2.22;;;;;;;21.49;65.71;100202.31;6317138;28;20100;-68
2024/04/06 11:32:39;;;;;;;8.20;2.23;;;;;;;21.30;65.03;100218.47;6322368;28;20052;-69
2024/04/06 11:35:40;;;;;;;;;;;;;;;21.40;65.32;100216.53;6321330;28;20048;-77
2024/04/06 11:38:43;;;;;;;14.23;2.38;;;;;;;22.00;64.40;100225.34;6313647;28;19943;-78
2024/04/06 11:41:44;;;;;;;4.13;2.10;;;;;;;22.05;63.61;100221.22;6305889;28;20051;-68
2024/04/06 11:44:45;;;;;;;5.53;1.90;;;;;;;22.09;61.87;100221.69;6298170;28;20080;-78
2024/04/06 11:47:46;;;;;;;6.13;2.17;;;;;;;22.30;61.69;100223.94;6297626;28;20119;-78
2024/04/06 11:50:48;;;;;;;3.25;2.00;;;;;;;22.28;61.83;100217.97;6304787;28;20048;-77
2024/04/06 11:53:48;;;;;;;7.53;2.07;;;;;;;22.20;62.04;100218.75;6321023;28;20059;-69
2024/04/06 11:56:49;;;;;;;5.73;1.90;;;;;;;22.27;62.75;100206.47;6321308;28;20051;-78
2024/04/06 11:59:50;;;;;;;4.33;1.70;;;;;;;22.27;60.57;100214.44;6321665;28;20055;-68
2024/04/06 12:02:51;;;;;;;4.70;1.90;;;;;;;22.44;61.58;100203.81;6317984;28;20052;-68
2024/04/06 12:05:54;;;;;;;4.43;1.83;;;;;;;22.64;61.04;100197.13;6301241;28;20048;-69
2024/04/06 12:08:55;;;;;;;7.03;2.20;;;;;;;22.70;61.26;100200.97;6321355;28;20089;-69
2024/04/06 12:11:56;;;;;;;8.07;2.53;;;;;;;22.93;61.21;100204.56;6322338;28;20056;-69
2024/04/06 12:14:57;;;;;;;1.97;1.60;;;;;;;23.29;59.03;100190.84;6321306;28;20276;-69
2024/04/06 12:17:58;;;;;;;4.27;2.10;;;;;;;23.65;56.88;100192.97;6312016;28;20048;-69
2024/04/06 12:21:00;;;;;;;6.07;2.00;;;;;;;23.66;57.32;100188.47;6322576;28;20079;-70
2024/04/06 12:24:01;;;;;;;3.13;1.67;;;;;;;23.93;56.58;100195.19;6322450;28;20047;-69
2024/04/06 12:27:02;;;;;;;7.40;2.23;;;;;;;24.02;55.99;100193.28;6321114;28;20056;-78
2024/04/06 12:30:09;;;;;;;5.17;2.10;;;;;;;24.08;55.78;100190.72;6320959;28;20052;-78
2024/04/06 12:33:10;;;;;;;3.50;1.70;;;;;;;23.48;54.62;100191.44;6312075;28;20069;-78
2024/04/06 12:36:11;;;;;;;2.40;1.60;;;;;;;23.67;56.70;100184.81;6311755;28;20154;-78
2024/04/06 12:39:12;;;;;;;9.10;1.83;;;;;;;24.09;56.82;100187.06;6318127;28;20048;-78
2024/04/06 12:42:15;;;;;;;3.80;1.50;;;;;;;23.94;54.47;100184.31;6321558;28;20056;-78
2024/04/06 12:45:17;;;;;;;6.60;1.40;;;;;;;24.07;57.01;100185.56;6321575;28;20044;-78
2024/04/06 12:48:18;;;;;;;8.87;1.70;;;;;;;24.07;54.56;100188.25;6312754;28;20051;-78
2024/04/06 12:51:18;;;;;;;5.70;1.60;;;;;;;23.93;57.86;100188.03;6299343;28;20059;-78
2024/04/06 12:54:22;;;;;;;3.33;1.43;;;;;;;23.41;56.05;100188.63;6296844;28;20131;-78
2024/04/06 12:57:41;;;;;;;4.45;1.63;;;;;;;23.16;58.15;100190.56;6299978;28;20097;-69
2024/04/06 13:00:43;;;;;;;7.53;2.20;;;;;;;22.57;58.61;100188.19;6309635;28;20117;-69
2024/04/06 13:03:46;;;;;;;3.33;1.55;;;;;;;22.57;60.38;100184.69;6313147;28;20411;-69
2024/04/06 13:06:50;;;;;;;4.88;1.98;;;;;;;22.54;59.68;100178.69;6298209;28;20074;-69
2024/04/06 13:09:54;;;;;;;6.00;2.22;;;;;;;22.47;59.22;100176.91;6311795;28;20515;-78
2024/04/06 13:12:55;;;;;;;11.75;2.40;;;;;;;22.58;61.03;100173.88;6294165;28;20110;-79
2024/04/06 13:15:56;;;;;;;5.00;1.87;;;;;;;22.29;60.29;100174.41;6295201;28;20053;-79
2024/04/06 13:18:59;;;;;;;3.40;2.00;;;;;;;21.99;61.02;100173.22;6295024;28;20044;-71
2024/04/06 13:22:00;;;;;;;5.28;1.73;;;;;;;22.16;62.62;100174.06;6311922;28;20552;-78
2024/04/06 13:25:00;;;;;;;4.60;2.20;;;;;;;22.27;61.00;100171.91;6294926;28;20105;-69
2024/04/06 13:28:02;;;;;;;6.33;2.13;;;;;;;22.33;60.45;100173.09;6303882;28;20044;-79
2024/04/06 13:31:07;;;;;;;3.17;1.58;;;;;;;22.35;61.27;100168.44;6321091;28;20055;-69
2024/04/06 13:34:09;;;;;;;4.63;1.98;;;;;;;22.46;61.46;100169.91;6320861;28;20047;-79
2024/04/06 13:37:12;;;;;;;4.05;1.92;;;;;;;22.38;61.49;100168.09;6319098;28;20055;-78
2024/04/06 13:40:14;;;;;;;3.22;1.90;;;;;;;22.49;60.03;100169.59;6310612;28;20500;-79
2024/04/06 13:43:17;;;;;;;7.85;2.10;;;;;;;22.53;60.80;100170.91;6320566;28;20534;-79
2024/04/06 13:46:18;;;;;;;3.17;1.60;;;;;;;22.51;60.13;100170.25;6321015;28;20054;-70
2024/04/06 13:49:19;;;;;;;4.53;1.97;;;;;;;22.45;60.74;100168.28;6294011;28;20044;-69
2024/04/06 13:52:20;;;;;;;4.80;1.80;;;;;;;22.36;61.01;100169.25;6295749;28;20048;-70
2024/04/06 13:55:23;;;;;;;5.07;1.60;;;;;;;22.50;62.37;100169.41;6294379;28;20052;-70
2024/04/06 13:58:24;;;;;;;4.72;1.75;;;;;;;22.44;63.54;100167.41;6316206;28;20418;-70
2024/04/06 14:01:24;;;;;;;2.53;1.63;;;;;;;22.42;63.71;100160.63;6320810;28;20044;-79
2024/04/06 14:04:25;;;;;;;4.43;2.03;;;;;;;22.34;62.66;100164.09;6320410;28;20272;-78